createdAt,value
2022-11-10T00:04:25.420Z,24.38
2022-11-10T00:09:27.421Z,25.05
2022-11-10T00:14:47.727Z,21.80
2022-11-10T00:19:49.740Z,21.70
2022-11-10T00:24:51.801Z,23.17
2022-11-10T00:29:53.935Z,22.30
2022-11-10T00:34:55.977Z,22.92
2022-11-10T00:39:57.992Z,21.10
2022-11-10T00:44:59.950Z,21.75
2022-11-10T00:50:02.063Z,21.35
2022-11-10T00:55:04.388Z,16.20
2022-11-10T01:00:07.095Z,19.40
2022-11-10T01:05:09.465Z,20.83
2022-11-10T01:15:13.395Z,15.55
2022-11-10T01:20:15.539Z,19.00
2022-11-10T01:25:17.667Z,22.40
2022-11-10T01:30:20.012Z,21.67
2022-11-10T01:40:24.265Z,21.30
2022-11-10T01:45:26.191Z,17.25
2022-11-10T01:50:32.823Z,21.70
2022-11-10T01:55:37.673Z,21.95
2022-11-10T02:05:56.944Z,21.85
2022-11-10T02:10:58.916Z,19.25
2022-11-10T02:16:01.199Z,21.52
2022-11-10T02:21:07.707Z,23.63
2022-11-10T02:26:09.743Z,23.35
2022-11-10T02:31:11.836Z,23.88
2022-11-10T02:36:14.120Z,20.23
2022-11-10T02:41:16.123Z,24.10
2022-11-10T02:46:18.152Z,21.92
2022-11-10T02:51:20.257Z,23.05
2022-11-10T02:56:22.243Z,22.13
2022-11-10T03:01:24.351Z,22.60
2022-11-10T03:06:26.447Z,20.92
2022-11-10T03:11:32.242Z,21.95
2022-11-10T03:16:34.611Z,22.00
2022-11-10T03:21:36.559Z,21.38
2022-11-10T03:26:38.519Z,21.75
2022-11-10T03:31:40.500Z,23.05
2022-11-10T03:36:42.528Z,20.13
2022-11-10T03:41:44.578Z,20.15
2022-11-10T03:46:51.317Z,22.15
2022-11-10T03:51:53.659Z,22.25
2022-11-10T03:56:55.672Z,22.27
2022-11-10T04:01:57.727Z,22.38
2022-11-10T04:07:18.040Z,22.10
2022-11-10T04:17:40.117Z,21.27
2022-11-10T04:23:00.523Z,21.35
2022-11-10T04:33:04.317Z,17.75
2022-11-10T04:38:06.316Z,19.80
2022-11-10T04:43:08.672Z,20.95
2022-11-10T04:53:12.500Z,14.30
2022-11-10T04:58:15.260Z,20.70
2022-11-10T05:03:17.261Z,22.70
2022-11-10T05:08:19.300Z,21.10
2022-11-10T05:13:21.672Z,19.70
2022-11-10T05:18:24.968Z,25.90
2022-11-10T05:23:39.173Z,21.48
2022-11-10T05:28:42.836Z,22.30
2022-11-10T05:33:44.936Z,21.05
2022-11-10T05:38:46.912Z,23.67
2022-11-10T05:43:49.441Z,16.85
2022-11-10T05:48:51.447Z,18.15
2022-11-10T05:53:53.459Z,23.92
2022-11-10T05:58:55.462Z,18.13
2022-11-10T06:03:57.538Z,19.63
2022-11-10T06:09:00.190Z,18.00
2022-11-10T06:14:02.466Z,12.38
2022-11-10T06:24:06.662Z,16.08
2022-11-10T06:34:10.477Z,17.85
2022-11-10T06:39:12.578Z,17.10
2022-11-10T06:44:14.568Z,8.30
2022-11-10T06:49:16.560Z,11.75
2022-11-10T06:54:18.687Z,17.02
2022-11-10T06:59:20.697Z,16.40
2022-11-10T07:04:22.823Z,20.08
2022-11-10T07:09:24.837Z,15.75
2022-11-10T07:14:26.813Z,14.68
2022-11-10T07:19:28.880Z,17.83
2022-11-10T07:24:30.952Z,16.98
2022-11-10T07:29:32.907Z,15.70
2022-11-10T07:34:34.871Z,14.43
2022-11-10T07:39:36.879Z,16.45
2022-11-10T07:44:38.836Z,13.80
2022-11-10T07:49:40.871Z,13.70
2022-11-10T07:54:43.060Z,15.90
2022-11-10T07:59:45.067Z,17.23
2022-11-10T08:04:47.056Z,14.93
2022-11-10T08:09:49.086Z,9.57
2022-11-10T08:14:51.118Z,13.43
2022-11-10T08:19:53.170Z,14.70
2022-11-10T08:24:55.508Z,13.38
2022-11-10T08:29:58.314Z,14.02
2022-11-10T08:35:00.344Z,11.90
2022-11-10T08:40:02.337Z,16.30
2022-11-10T08:45:04.680Z,15.52
2022-11-10T08:50:07.992Z,10.68
2022-11-10T08:55:10.142Z,11.70
2022-11-10T09:00:13.356Z,11.60
2022-11-10T09:05:15.387Z,7.80
2022-11-10T09:10:17.805Z,10.73
2022-11-10T09:15:20.288Z,6.95
2022-11-10T09:20:22.398Z,10.38
2022-11-10T09:30:26.763Z,9.48
2022-11-10T09:35:29.145Z,8.38
2022-11-10T09:40:52.175Z,9.45
2022-11-10T09:45:58.321Z,8.57
2022-11-10T09:51:10.327Z,7.18
2022-11-10T09:56:21.824Z,7.82
2022-11-10T10:01:36.271Z,6.05
2022-11-10T10:07:11.390Z,6.82
2022-11-10T10:12:55.284Z,7.07
2022-11-10T10:18:03.349Z,7.70
2022-11-10T10:28:31.489Z,6.72
2022-11-10T10:33:33.498Z,6.50
2022-11-10T10:43:46.622Z,6.45
2022-11-10T10:49:27.272Z,5.97
2022-11-10T10:54:31.192Z,6.30
2022-11-10T10:59:34.592Z,7.65
2022-11-10T11:04:38.401Z,5.75
2022-11-10T11:09:43.335Z,6.38
2022-11-10T11:14:46.330Z,6.47
2022-11-10T11:19:59.875Z,6.93
2022-11-10T11:25:08.085Z,6.68
2022-11-10T11:30:17.887Z,8.10
2022-11-10T11:35:38.189Z,6.13
2022-11-10T11:40:46.975Z,4.25
2022-11-10T11:46:04.177Z,6.68
2022-11-10T11:51:06.225Z,6.35
2022-11-10T12:01:34.333Z,6.03
2022-11-10T12:06:55.310Z,7.80
2022-11-10T12:12:26.275Z,7.32
2022-11-10T12:17:59.157Z,5.57
2022-11-10T12:23:34.771Z,7.63
2022-11-10T12:28:45.321Z,7.22
2022-11-10T12:34:02.199Z,6.90
2022-11-10T12:39:15.419Z,7.18
2022-11-10T12:44:27.611Z,6.55
2022-11-10T12:49:32.938Z,6.97
2022-11-10T12:54:36.357Z,6.20
2022-11-10T12:59:41.701Z,6.13
2022-11-10T13:04:43.877Z,3.88
2022-11-10T13:09:46.711Z,3.97
2022-11-10T13:14:49.359Z,3.67
2022-11-10T13:19:53.298Z,3.90
2022-11-10T13:25:33.420Z,3.13
2022-11-10T13:30:39.796Z,2.35
2022-11-10T13:35:41.850Z,2.83
2022-11-10T13:45:47.983Z,2.63
2022-11-10T13:51:07.461Z,2.72
2022-11-10T13:56:36.827Z,3.05
2022-11-10T14:01:39.201Z,3.25
2022-11-10T14:06:55.271Z,4.90
2022-11-10T14:12:02.925Z,7.80
2022-11-10T14:17:13.682Z,5.65
2022-11-10T14:22:36.226Z,11.30
2022-11-10T14:27:39.059Z,9.90
2022-11-10T14:32:41.212Z,13.63
2022-11-10T14:37:43.913Z,13.32
2022-11-10T14:42:47.985Z,17.88
2022-11-10T14:48:00.706Z,19.48
2022-11-10T14:53:24.675Z,10.02
2022-11-10T14:58:39.266Z,7.43
2022-11-10T15:03:43.130Z,6.40
2022-11-10T15:08:45.166Z,7.10
2022-11-10T15:13:47.215Z,9.05
2022-11-10T15:18:51.331Z,11.82
2022-11-10T15:23:56.326Z,10.75
2022-11-10T15:28:59.147Z,11.60
2022-11-10T15:34:05.004Z,10.85
2022-11-10T15:39:12.955Z,10.82
2022-11-10T15:44:19.910Z,9.18
2022-11-10T15:49:21.948Z,9.88
2022-11-10T15:54:27.871Z,11.00
2022-11-10T15:59:30.289Z,15.02
2022-11-10T16:04:32.284Z,14.07
2022-11-10T16:09:36.704Z,14.73
2022-11-10T16:14:39.404Z,11.70
2022-11-10T16:19:41.757Z,9.52
2022-11-10T16:29:45.873Z,10.48
2022-11-10T16:34:48.468Z,8.77
2022-11-10T16:39:50.625Z,9.45
2022-11-10T16:45:55.952Z,21.70
2022-11-10T16:51:01.872Z,14.18
2022-11-10T16:56:04.949Z,13.85
2022-11-10T17:01:20.941Z,17.52
2022-11-10T17:06:26.796Z,17.05
2022-11-10T17:11:29.052Z,31.25
2022-11-10T17:16:44.870Z,48.30
2022-11-10T17:21:50.104Z,27.00
2022-11-10T17:26:52.208Z,36.45
2022-11-10T17:31:56.171Z,28.35
2022-11-10T17:36:59.382Z,17.60
2022-11-10T17:42:02.242Z,15.38
2022-11-10T17:47:04.484Z,20.25
2022-11-10T17:57:18.144Z,21.25
2022-11-10T18:07:51.740Z,16.58
2022-11-10T18:12:55.261Z,14.82
2022-11-10T18:18:00.924Z,19.58
2022-11-10T18:23:14.725Z,51.60
2022-11-10T18:28:49.824Z,35.75
2022-11-10T18:58:00.466Z,12.40
2022-11-10T19:08:25.372Z,34.13
2022-11-10T19:13:36.521Z,26.48
2022-11-10T19:18:52.174Z,22.52
2022-11-10T19:24:03.508Z,26.88
2022-11-10T19:29:06.855Z,19.75
2022-11-10T19:34:09.925Z,15.93
2022-11-10T19:39:17.558Z,14.23
2022-11-10T19:44:20.604Z,12.75
2022-11-10T19:49:23.595Z,12.25
2022-11-10T19:54:25.740Z,11.02
2022-11-10T19:59:27.895Z,13.07
2022-11-10T20:04:32.727Z,12.95
2022-11-10T20:09:35.082Z,10.90
2022-11-10T20:19:41.003Z,12.95
2022-11-10T20:24:49.892Z,12.73
2022-11-10T20:29:55.046Z,13.68
2022-11-10T20:34:58.036Z,14.57
2022-11-10T20:40:00.964Z,14.95
2022-11-10T20:45:03.972Z,15.82
2022-11-10T20:50:13.062Z,15.65
2022-11-10T20:55:18.532Z,14.82
2022-11-10T21:00:23.030Z,14.00
2022-11-10T21:05:31.682Z,9.95
2022-11-10T21:10:41.543Z,15.90
2022-11-10T21:15:59.630Z,13.82
2022-11-10T21:21:07.906Z,15.55
2022-11-10T21:26:10.793Z,14.57
2022-11-10T21:31:15.298Z,15.88
2022-11-10T21:36:26.924Z,15.75
2022-11-10T21:41:37.982Z,14.18
2022-11-10T21:46:52.731Z,13.45
2022-11-10T21:51:55.128Z,14.38
2022-11-10T21:56:57.653Z,15.60
2022-11-10T22:02:04.082Z,15.20
2022-11-10T22:07:26.604Z,12.93
2022-11-10T22:12:48.754Z,14.10
2022-11-10T22:18:09.351Z,13.32
2022-11-10T22:23:13.276Z,13.05
2022-11-10T22:28:15.385Z,11.93
2022-11-10T22:33:33.352Z,13.13
2022-11-10T22:38:37.345Z,12.35
2022-11-10T22:44:10.559Z,12.48
2022-11-10T22:49:17.531Z,12.27
2022-11-10T22:54:23.180Z,11.88
2022-11-10T22:59:25.570Z,13.15
2022-11-10T23:09:30.730Z,10.05
2022-11-10T23:14:33.014Z,11.13
2022-11-10T23:19:35.352Z,11.15
2022-11-10T23:24:37.427Z,11.93
2022-11-10T23:29:39.581Z,10.25
2022-11-10T23:34:42.198Z,10.98
2022-11-10T23:39:44.385Z,11.70
2022-11-10T23:44:46.426Z,13.70
2022-11-10T23:49:48.415Z,12.20
2022-11-10T23:54:50.457Z,11.05
2022-11-10T23:59:52.595Z,10.18
